createdAt,value
2023-05-01T00:00:41.707Z,100526.31
2023-05-01T00:04:43.744Z,100521.09
2023-05-01T00:08:45.380Z,100515.03
2023-05-01T00:12:46.949Z,100504.59
2023-05-01T00:16:48.635Z,100510.47
2023-05-01T00:20:50.290Z,100494.13
2023-05-01T00:24:52.224Z,100490.69
2023-05-01T00:28:54.207Z,100492.34
2023-05-01T00:32:56.001Z,100486.19
2023-05-01T00:36:58.775Z,100484.34
2023-05-01T00:41:00.458Z,100485.84
2023-05-01T00:45:02.023Z,100473.72
2023-05-01T00:49:04.276Z,100468.41
2023-05-01T00:53:05.930Z,100477.56
2023-05-01T00:57:09.557Z,100477.31
2023-05-01T01:01:13.110Z,100474.19
2023-05-01T01:05:14.787Z,100473.16
2023-05-01T01:09:58.131Z,100468.16
2023-05-01T01:14:11.554Z,100464.56
2023-05-01T01:18:22.490Z,100465.31
2023-05-01T01:22:26.970Z,100453.00
2023-05-01T01:27:06.172Z,100454.47
2023-05-01T01:31:30.959Z,100460.41
2023-05-01T01:35:34.723Z,100461.97
2023-05-01T01:39:58.841Z,100468.78
2023-05-01T01:44:15.869Z,100458.56
2023-05-01T01:48:26.361Z,100458.41
2023-05-01T01:52:30.015Z,100461.03
2023-05-01T01:56:34.396Z,100461.41
2023-05-01T02:00:36.866Z,100455.72
2023-05-01T02:04:39.766Z,100456.56
2023-05-01T02:08:43.870Z,100450.41
2023-05-01T02:12:48.131Z,100457.16
2023-05-01T02:16:50.915Z,100450.22
2023-05-01T02:20:53.315Z,100447.63
2023-05-01T02:24:57.223Z,100439.06
2023-05-01T02:28:59.351Z,100450.22
2023-05-01T02:33:00.981Z,100448.50
2023-05-01T02:37:05.852Z,100441.72
2023-05-01T02:41:09.800Z,100434.63
2023-05-01T02:45:19.144Z,100434.78
2023-05-01T02:49:21.516Z,100432.22
2023-05-01T02:53:23.227Z,100432.22
2023-05-01T02:57:29.321Z,100424.44
2023-05-01T03:01:30.982Z,100421.00
2023-05-01T03:05:32.996Z,100418.53
2023-05-01T03:09:34.674Z,100410.00
2023-05-01T03:13:37.019Z,100416.78
2023-05-01T03:17:38.683Z,100413.06
2023-05-01T03:21:42.237Z,100412.72
2023-05-01T03:25:43.797Z,100411.66
2023-05-01T03:29:45.462Z,100409.59
2023-05-01T03:33:47.078Z,100408.81
2023-05-01T03:37:50.857Z,100407.28
2023-05-01T03:42:12.345Z,100413.28
2023-05-01T03:46:16.497Z,100397.03
2023-05-01T03:50:18.747Z,100397.00
2023-05-01T03:54:23.389Z,100401.97
2023-05-01T03:58:33.869Z,100394.97
2023-05-01T04:02:36.055Z,100395.22
2023-05-01T04:06:38.064Z,100396.22
2023-05-01T04:10:41.879Z,100398.00
2023-05-01T04:14:44.414Z,100398.06
2023-05-01T04:18:46.213Z,100399.94
2023-05-01T04:22:48.114Z,100394.94
2023-05-01T04:26:50.390Z,100402.66
2023-05-01T04:30:52.135Z,100397.50
2023-05-01T04:34:53.718Z,100394.88
2023-05-01T04:38:56.381Z,100395.72
2023-05-01T04:42:58.130Z,100401.50
2023-05-01T04:47:02.864Z,100406.63
2023-05-01T04:51:04.756Z,100397.38
2023-05-01T04:55:09.573Z,100403.16
2023-05-01T04:59:17.912Z,100399.56
2023-05-01T05:03:19.873Z,100406.63
2023-05-01T05:07:22.430Z,100403.44
2023-05-01T05:11:59.082Z,100403.56
2023-05-01T05:16:00.975Z,100406.16
2023-05-01T05:20:03.564Z,100408.16
2023-05-01T05:24:05.369Z,100402.22
2023-05-01T05:28:07.704Z,100411.22
2023-05-01T05:32:10.382Z,100413.16
2023-05-01T05:36:12.352Z,100409.16
2023-05-01T05:40:16.844Z,100403.56
2023-05-01T05:44:28.874Z,100401.25
2023-05-01T05:48:30.645Z,100402.13
2023-05-01T05:52:32.737Z,100407.50
2023-05-01T05:56:35.896Z,100401.81
2023-05-01T06:00:37.686Z,100395.44
2023-05-01T06:04:40.892Z,100394.84
2023-05-01T06:08:45.376Z,100400.91
2023-05-01T06:12:50.410Z,100400.50
2023-05-01T06:16:56.565Z,100400.78
2023-05-01T06:20:58.449Z,100387.00
2023-05-01T06:25:00.688Z,100395.22
2023-05-01T06:29:04.346Z,100384.19
2023-05-01T06:33:06.473Z,100384.84
2023-05-01T06:37:08.671Z,100382.91
2023-05-01T06:41:10.361Z,100388.72
2023-05-01T06:45:11.911Z,100392.78
2023-05-01T06:49:13.553Z,100390.59
2023-05-01T06:53:16.227Z,100399.34
2023-05-01T06:57:17.791Z,100402.06
2023-05-01T07:01:19.910Z,100405.56
2023-05-01T07:05:22.339Z,100398.75
2023-05-01T07:09:23.982Z,100391.16
2023-05-01T07:13:26.891Z,100405.28
2023-05-01T07:17:29.417Z,100393.50
2023-05-01T07:21:32.170Z,100408.22
2023-05-01T07:25:33.806Z,100415.38
2023-05-01T07:29:36.902Z,100401.81
2023-05-01T07:33:38.473Z,100396.78
2023-05-01T07:37:40.044Z,100392.91
2023-05-01T07:41:41.683Z,100377.53
2023-05-01T07:45:55.604Z,100381.25
2023-05-01T07:49:57.364Z,100375.63
2023-05-01T07:54:04.170Z,100374.94
2023-05-01T07:58:06.345Z,100368.25
2023-05-01T08:02:08.005Z,100383.03
2023-05-01T08:06:09.639Z,100387.41
2023-05-01T08:10:11.212Z,100386.63
2023-05-01T08:14:12.738Z,100389.38
2023-05-01T08:18:20.222Z,100380.75
2023-05-01T08:22:23.418Z,100387.69
2023-05-01T08:26:25.088Z,100379.88
2023-05-01T08:30:26.725Z,100383.38
2023-05-01T08:34:28.352Z,100388.66
2023-05-01T08:38:29.856Z,100372.41
2023-05-01T08:42:32.419Z,100376.81
2023-05-01T08:46:46.676Z,100373.31
2023-05-01T08:50:49.445Z,100368.19
2023-05-01T08:54:54.549Z,100378.75
2023-05-01T08:58:58.387Z,100376.97
2023-05-01T09:03:02.244Z,100372.63
2023-05-01T09:07:04.861Z,100372.53
2023-05-01T09:11:06.511Z,100370.81
2023-05-01T09:15:09.641Z,100368.31
2023-05-01T09:19:11.279Z,100375.22
2023-05-01T09:23:13.090Z,100370.06
2023-05-01T09:27:15.162Z,100367.44
2023-05-01T09:31:28.451Z,100356.22
2023-05-01T09:35:30.858Z,100358.00
2023-05-01T09:39:32.746Z,100363.13
2023-05-01T09:43:34.347Z,100357.94
2023-05-01T09:47:36.248Z,100356.22
2023-05-01T09:51:38.145Z,100357.88
2023-05-01T09:55:39.755Z,100357.03
2023-05-01T09:59:41.384Z,100360.50
2023-05-01T10:03:44.804Z,100358.81
2023-05-01T10:07:57.390Z,100364.84
2023-05-01T10:11:59.426Z,100368.34
2023-05-01T10:16:03.703Z,100363.25
2023-05-01T10:20:09.269Z,100364.16
2023-05-01T10:24:11.307Z,100362.41
2023-05-01T10:28:13.731Z,100359.81
2023-05-01T10:32:15.777Z,100371.16
2023-05-01T10:36:26.465Z,100354.91
2023-05-01T10:40:40.235Z,100350.66
2023-05-01T10:44:43.359Z,100342.88
2023-05-01T10:48:44.959Z,100345.47
2023-05-01T10:53:14.684Z,100336.81
2023-05-01T10:57:43.754Z,100335.06
2023-05-01T11:01:51.704Z,100331.56
2023-05-01T11:05:59.611Z,100328.09
2023-05-01T11:10:02.127Z,100326.34
2023-05-01T11:14:08.558Z,100327.28
2023-05-01T11:18:10.986Z,100329.00
2023-05-01T11:22:13.571Z,100329.88
2023-05-01T11:26:15.246Z,100328.13
2023-05-01T11:30:17.464Z,100325.38
2023-05-01T11:34:19.110Z,100314.81
2023-05-01T11:38:21.252Z,100319.88
2023-05-01T11:42:22.911Z,100313.84
2023-05-01T11:46:29.233Z,100311.28
2023-05-01T11:50:38.725Z,100314.78
2023-05-01T11:54:48.109Z,100314.63
2023-05-01T11:58:49.746Z,100298.84
2023-05-01T12:03:06.355Z,100296.28
2023-05-01T12:07:20.274Z,100291.03
2023-05-01T12:11:23.293Z,100297.06
2023-05-01T12:15:25.118Z,100300.50
2023-05-01T12:19:26.967Z,100296.19
2023-05-01T12:23:34.751Z,100297.91
2023-05-01T12:27:45.515Z,100292.41
2023-05-01T12:31:48.837Z,100291.06
2023-05-01T12:35:50.780Z,100283.78
2023-05-01T12:39:52.837Z,100285.13
2023-05-01T12:43:54.440Z,100283.22
2023-05-01T12:47:56.288Z,100283.00
2023-05-01T12:52:00.383Z,100280.28
2023-05-01T12:56:03.345Z,100270.63
2023-05-01T13:00:05.241Z,100273.63
2023-05-01T13:04:07.142Z,100261.59
2023-05-01T13:08:08.767Z,100271.22
2023-05-01T13:12:10.527Z,100273.31
2023-05-01T13:16:16.554Z,100282.00
2023-05-01T13:20:26.754Z,100274.97
2023-05-01T13:24:42.150Z,100266.84
2023-05-01T13:28:47.618Z,100265.00
2023-05-01T13:32:49.678Z,100261.44
2023-05-01T13:36:51.415Z,100258.03
2023-05-01T13:40:52.951Z,100263.63
2023-05-01T13:44:56.254Z,100260.41
2023-05-01T13:49:03.570Z,100259.69
2023-05-01T13:53:06.806Z,100239.78
2023-05-01T13:57:09.193Z,100238.97
2023-05-01T14:01:18.817Z,100233.06
2023-05-01T14:05:28.205Z,100245.47
2023-05-01T14:09:29.809Z,100240.25
2023-05-01T14:13:31.876Z,100240.31
2023-05-01T14:17:35.889Z,100228.16
2023-05-01T14:21:42.017Z,100235.16
2023-05-01T14:25:45.664Z,100227.00
2023-05-01T14:29:47.430Z,100224.50
2023-05-01T14:33:59.397Z,100223.94
2023-05-01T14:38:08.900Z,100223.41
2023-05-01T14:42:10.477Z,100222.84
2023-05-01T14:46:13.431Z,100224.91
2023-05-01T14:50:23.196Z,100224.97
2023-05-01T14:54:24.779Z,100230.22
2023-05-01T14:58:26.305Z,100226.34
2023-05-01T15:02:28.506Z,100228.53
2023-05-01T15:06:30.214Z,100238.47
2023-05-01T15:10:32.386Z,100236.06
2023-05-01T15:14:33.927Z,100232.69
2023-05-01T15:18:36.509Z,100226.63
2023-05-01T15:22:40.295Z,100228.41
2023-05-01T15:26:42.599Z,100224.88
2023-05-01T15:30:46.403Z,100228.31
2023-05-01T15:34:50.040Z,100230.19
2023-05-01T15:38:51.659Z,100236.47
2023-05-01T15:42:53.338Z,100233.97
2023-05-01T15:46:55.112Z,100238.38
2023-05-01T15:50:56.815Z,100238.38
2023-05-01T15:54:58.446Z,100247.00
2023-05-01T15:59:03.045Z,100242.63
2023-05-01T16:03:04.986Z,100238.28
2023-05-01T16:07:08.823Z,100242.63
2023-05-01T16:11:12.386Z,100255.88
2023-05-01T16:15:14.837Z,100261.22
2023-05-01T16:19:16.729Z,100257.78
2023-05-01T16:23:18.329Z,100256.06
2023-05-01T16:27:19.914Z,100263.97
2023-05-01T16:31:27.673Z,100269.22
2023-05-01T16:35:29.654Z,100277.91
2023-05-01T16:39:31.202Z,100277.94
2023-05-01T16:43:32.965Z,100281.41
2023-05-01T16:47:34.677Z,100288.34
2023-05-01T16:51:36.374Z,100283.19
2023-05-01T16:55:38.068Z,100290.13
2023-05-01T16:59:39.647Z,100293.56
2023-05-01T17:03:41.458Z,100291.84
2023-05-01T17:07:43.176Z,100290.94
2023-05-01T17:11:44.762Z,100294.41
2023-05-01T17:15:46.539Z,100296.09
2023-05-01T17:19:48.459Z,100311.63
2023-05-01T17:23:50.109Z,100321.06
2023-05-01T17:27:51.702Z,100319.25
2023-05-01T17:31:53.476Z,100327.03
2023-05-01T17:35:56.649Z,100333.06
2023-05-01T17:39:58.412Z,100337.41
2023-05-01T17:44:00.086Z,100335.63
2023-05-01T17:48:01.689Z,100345.09
2023-05-01T17:52:03.605Z,100350.22
2023-05-01T17:56:05.168Z,100361.41
2023-05-01T18:00:11.712Z,100361.31
2023-05-01T18:04:15.993Z,100362.88
2023-05-01T18:08:17.721Z,100365.34
2023-05-01T18:12:19.304Z,100375.63
2023-05-01T18:16:22.648Z,100378.19
2023-05-01T18:20:24.314Z,100381.59
2023-05-01T18:24:26.277Z,100385.00
2023-05-01T18:28:28.309Z,100379.72
2023-05-01T18:32:43.355Z,100394.38
2023-05-01T18:36:52.177Z,100386.50
2023-05-01T18:40:54.127Z,100392.44
2023-05-01T18:44:56.824Z,100396.69
2023-05-01T18:48:59.826Z,100406.09
2023-05-01T18:53:01.756Z,100402.63
2023-05-01T18:57:03.434Z,100411.16
2023-05-01T19:01:05.209Z,100426.59
2023-05-01T19:05:08.771Z,100435.16
2023-05-01T19:09:10.998Z,100443.78
2023-05-01T19:13:12.867Z,100452.38
2023-05-01T19:17:14.812Z,100455.81
2023-05-01T19:21:16.634Z,100460.13
2023-05-01T19:25:18.980Z,100464.41
2023-05-01T19:29:20.624Z,100469.47
2023-05-01T19:33:22.620Z,100471.94
2023-05-01T19:37:24.232Z,100482.19
2023-05-01T19:41:26.415Z,100487.38
2023-05-01T19:45:28.116Z,100499.41
2023-05-01T19:49:29.894Z,100497.66
2023-05-01T19:53:31.750Z,100499.31
2023-05-01T19:57:33.820Z,100508.56
2023-05-01T20:01:36.890Z,100511.75
2023-05-01T20:05:39.088Z,100519.16
2023-05-01T20:09:40.803Z,100526.50
2023-05-01T20:13:42.368Z,100537.59
2023-05-01T20:17:44.339Z,100535.63
2023-05-01T20:21:45.969Z,100553.69
2023-05-01T20:25:48.418Z,100549.50
2023-05-01T20:29:50.050Z,100548.78
2023-05-01T20:33:51.668Z,100548.25
2023-05-01T20:37:53.500Z,100553.56
2023-05-01T20:41:56.144Z,100540.78
2023-05-01T20:45:57.761Z,100542.63
2023-05-01T20:50:00.303Z,100549.59
2023-05-01T20:54:02.176Z,100552.25
2023-05-01T20:58:03.918Z,100555.78
2023-05-01T21:02:05.702Z,100560.09
2023-05-01T21:06:07.377Z,100557.56
2023-05-01T21:10:10.722Z,100572.19
2023-05-01T21:14:12.433Z,100580.81
2023-05-01T21:18:15.567Z,100581.66
2023-05-01T21:22:23.685Z,100593.53
2023-05-01T21:26:25.686Z,100589.94
2023-05-01T21:30:33.012Z,100598.38
2023-05-01T21:34:35.365Z,100602.47
2023-05-01T21:38:37.145Z,100605.09
2023-05-01T21:42:39.574Z,100600.00
2023-05-01T21:46:42.161Z,100603.31
2023-05-01T21:50:47.629Z,100608.53
2023-05-01T21:54:49.388Z,100600.84
2023-05-01T21:58:51.705Z,100600.88
2023-05-01T22:02:53.879Z,100605.25
2023-05-01T22:06:55.578Z,100609.59
2023-05-01T22:10:57.337Z,100616.41
2023-05-01T22:14:58.909Z,100619.69
2023-05-01T22:19:00.520Z,100615.16
2023-05-01T22:23:02.045Z,100621.00
2023-05-01T22:27:03.662Z,100626.16
2023-05-01T22:31:05.378Z,100626.91
2023-05-01T22:35:08.389Z,100631.97
2023-05-01T22:39:09.949Z,100631.91
2023-05-01T22:43:11.619Z,100637.94
2023-05-01T22:47:13.205Z,100634.44
2023-05-01T22:51:14.808Z,100649.97
2023-05-01T22:55:16.552Z,100649.91
2023-05-01T22:59:19.014Z,100651.56
2023-05-01T23:03:20.877Z,100650.81
2023-05-01T23:07:22.523Z,100661.03
2023-05-01T23:11:30.535Z,100670.25
2023-05-01T23:15:32.758Z,100661.31
2023-05-01T23:19:34.420Z,100663.63
2023-05-01T23:23:36.205Z,100656.59
2023-05-01T23:27:41.872Z,100655.50
2023-05-01T23:31:47.610Z,100668.19
2023-05-01T23:35:49.500Z,100664.56
2023-05-01T23:39:53.534Z,100667.97
2023-05-01T23:43:55.882Z,100662.81
2023-05-01T23:47:58.583Z,100667.75
2023-05-01T23:52:00.301Z,100669.25
2023-05-01T23:56:02.226Z,100675.91
